Aviation Digital Data Service (ADDS)

Output produced by METARs form (2335 UTC 15 December 2017)
found at http://www.aviationweather.gov/adds/metars/
 
KHLG 152253Z 25009G19KT 9SM -SN BKN036 BKN046 OVC055 M03/M09 A2991 RMK AO2 SNB44 SLP150 P0000 T10281089
KHLG 152153Z 23011G18KT 10SM SCT036 OVC049 M03/M09 A2989 RMK AO2 SLP143 T10281094
KHLG 152053Z 24009G17KT 10SM BKN040 OVC048 M03/M10 A2988 RMK AO2 SLP139 T10281100 56006
KHLG 151953Z 26008G20KT 10SM OVC040 M03/M11 A2989 RMK AO2 SLP144 T10281106
KHLG 151853Z 25009G20KT 10SM SCT080 M03/M12 A2989 RMK AO2 SLP140 T10281117
KHLG 151753Z 25009KT 10SM CLR M04/M12 A2990 RMK AO2 SLP147 T10391117 11033 21100 58018
KHLG 151653Z 26007KT 10SM SCT100 M05/M11 A2992 RMK AO2 SLP154 T10501106
KHLG 151553Z 25005KT 10SM CLR M06/M10 A2995 RMK AO2 SLP164 T10611100
KHLG 151453Z 00000KT 8SM CLR M08/M10 A2996 RMK AO2 SLP167 T10831100 55006
KHLG 151353Z 00000KT 6SM BR FEW120 M09/M11 A2996 RMK AO2 SLP166 T10891106
KHLG 151303Z 00000KT 6SM BR FEW029 M09/M11 A2996 RMK AO2 T10941111
KHLG 151253Z 00000KT 6SM BR BKN029 M09/M11 A2996 RMK AO2 SLP169 T10941111
KHLG 151208Z 00000KT 8SM BKN029 M09/M11 A2997 RMK AO2 T10941111
KHLG 151153Z 00000KT 9SM FEW030 M10/M12 A2998 RMK AO2 SLP173 70001 I6000 T11001117 11078 21100 55004
KHLG 151053Z AUTO 00000KT 7SM BKN030 M09/M12 A2998 RMK AO2 SLP173 T10941117
KHLG 150953Z AUTO 00000KT 7SM CLR M09/M11 A2997 RMK AO2 SLP171 I1000 T10891106
KHLG 150853Z AUTO 00000KT 8SM CLR M09/M11 A2999 RMK AO2 SLP176 T10891106 56012
KHLG 150753Z AUTO 10003KT 10SM CLR M10/M12 A3000 RMK AO2 SLP180 T11001117
KHLG 150653Z AUTO 00000KT 10SM CLR M08/M11 A3000 RMK AO2 SLP181 T10831111
KHLG 150553Z AUTO 00000KT 10SM CLR M08/M10 A3002 RMK AO2 SLP188 T10831100 11050 21089 58005
KHLG 150453Z AUTO 00000KT 10SM CLR M08/M12 A3005 RMK AO2 SLP196 T10781117 400061078
KHLG 150353Z AUTO 00000KT 10SM CLR M07/M12 A3004 RMK AO2 SLP192 T10671117
KHLG 150253Z 00000KT 10SM CLR M06/M12 A3004 RMK AO2 SLP192 T10611117 51001
KHLG 150153Z 00000KT 10SM CLR M06/M11 A3004 RMK AO2 SLP191 T10611111
KHLG 150053Z 22003KT 10SM CLR M06/M12 A3005 RMK AO2 SLP195 T10611117
KHLG 142353Z 00000KT 10SM OVC036 M05/M11 A3003 RMK AO2 SLP190 T10501111 11028 21056 53020